Time;durP1;ratioP1;P1;durP2;ratioP2;P2;SDS_P1;SDS_P2;PMS_P1;PMS_P2;Temp;Humidity;BMP_temperature;BMP_pressure;BME280_temperature;BME280_humidity;BME280_pressure;Samples;Min_cycle;Max_cycle;Signal;HPM_P1;HPM_P2
2023/07/13 00:01:30;;;;;;;0.10;0.10;;;;;;;13.61;96.71;101270.97;5052678;28;20063;-48
2023/07/13 00:03:56;;;;;;;0.10;0.10;;;;;;;13.68;96.17;101269.41;5053295;28;20053;-46
2023/07/13 00:06:22;;;;;;;0.10;0.10;;;;;;;13.68;96.76;101280.63;5053011;28;20089;-45
2023/07/13 00:08:48;;;;;;;0.10;0.10;;;;;;;13.65;96.48;101284.00;5053052;28;20028;-48
2023/07/13 00:11:15;;;;;;;0.10;0.10;;;;;;;13.56;96.67;101286.38;5053195;28;20448;-46
2023/07/13 00:13:42;;;;;;;0.10;0.10;;;;;;;13.62;96.40;101285.66;5052311;28;20021;-46
2023/07/13 00:16:08;;;;;;;0.10;0.10;;;;;;;13.59;96.89;101276.09;5053236;28;20025;-49
2023/07/13 00:18:34;;;;;;;0.10;0.10;;;;;;;13.65;96.98;101275.38;5052828;28;20021;-47
2023/07/13 00:21:05;;;;;;;0.10;0.10;;;;;;;13.56;97.30;101268.25;5052471;28;20036;-47
2023/07/13 00:23:41;;;;;;;0.10;0.10;;;;;;;13.60;97.32;101276.97;5052587;28;20076;-48
2023/07/13 00:26:08;;;;;;;0.10;0.10;;;;;;;13.57;96.75;101276.88;5053193;28;20017;-48
2023/07/13 00:28:35;;;;;;;0.10;0.10;;;;;;;13.63;96.79;101277.03;5052084;28;20029;-43
2023/07/13 00:31:01;;;;;;;0.13;0.13;;;;;;;13.62;96.77;101270.09;5052810;28;20028;-47
2023/07/13 00:33:29;;;;;;;0.10;0.10;;;;;;;13.65;97.33;101276.25;5052522;28;20473;-44
2023/07/13 00:35:56;;;;;;;0.10;0.10;;;;;;;13.65;96.90;101276.25;5052009;28;20029;-48
2023/07/13 00:38:22;;;;;;;0.03;0.03;;;;;;;13.67;96.80;101284.03;5052793;28;20051;-46
2023/07/13 00:40:48;;;;;;;0.10;0.10;;;;;;;13.66;96.71;101277.13;5052644;28;20029;-47
2023/07/13 00:43:16;;;;;;;0.10;0.10;;;;;;;13.69;97.72;101282.38;5052144;28;20028;-46
2023/07/13 00:45:45;;;;;;;0.10;0.10;;;;;;;13.69;97.38;101278.94;5052345;28;20107;-46
2023/07/13 00:48:12;;;;;;;0.10;0.10;;;;;;;13.62;97.22;101286.53;5051903;28;20033;-47
2023/07/13 00:50:39;;;;;;;0.10;0.10;;;;;;;13.63;97.27;101283.13;5052032;28;20025;-49
2023/07/13 00:53:04;;;;;;;0.00;0.00;;;;;;;13.58;97.42;101284.72;5052979;28;20025;-47
2023/07/13 00:55:29;;;;;;;0.00;0.00;;;;;;;13.63;97.70;101292.59;5052071;28;20028;-47
2023/07/13 00:57:55;;;;;;;0.10;0.10;;;;;;;13.61;97.85;101291.69;5052221;28;20104;-47
2023/07/13 01:00:23;;;;;;;0.03;0.03;;;;;;;13.60;97.71;101282.16;5052674;28;20033;-47
2023/07/13 01:02:49;;;;;;;0.10;0.10;;;;;;;13.62;98.02;101283.06;5052032;28;20025;-47
2023/07/13 01:05:20;;;;;;;0.10;0.10;;;;;;;13.58;98.12;101284.72;5052381;28;20384;-47
2023/07/13 01:07:48;;;;;;;0.10;0.10;;;;;;;13.56;98.32;101286.38;5052747;28;20103;-44
2023/07/13 01:10:14;;;;;;;0.10;0.10;;;;;;;13.61;98.57;101281.34;5051675;28;20029;-47
2023/07/13 01:12:40;;;;;;;0.00;0.00;;;;;;;13.64;99.18;101281.38;5052242;28;20045;-48
2023/07/13 01:15:40;;;;;;;0.10;0.10;;;;;;;13.61;98.73;101287.38;5052436;28;20068;-47
2023/07/13 01:18:09;;;;;;;0.10;0.10;;;;;;;13.58;98.84;101286.41;5051946;28;20064;-49
2023/07/13 01:20:36;;;;;;;0.00;0.00;;;;;;;13.56;99.24;101280.34;5052193;28;20025;-48
2023/07/13 01:23:06;;;;;;;0.10;0.10;;;;;;;13.52;99.38;101294.03;5052011;28;20485;-45
2023/07/13 01:25:31;;;;;;;0.10;0.10;;;;;;;13.57;99.79;101290.72;5051427;28;20104;-47
2023/07/13 01:27:57;;;;;;;0.10;0.10;;;;;;;13.56;99.86;101295.88;5052930;28;20104;-49
2023/07/13 01:30:22;;;;;;;0.10;0.10;;;;;;;13.61;99.59;101295.16;5051876;28;20087;-43
2023/07/13 01:32:48;;;;;;;0.10;0.10;;;;;;;13.57;99.74;101297.59;5051693;28;20017;-46
2023/07/13 01:35:13;;;;;;;0.03;0.03;;;;;;;13.54;100.00;101290.63;5052398;28;20108;-43
2023/07/13 01:37:38;;;;;;;0.10;0.10;;;;;;;13.55;100.00;101299.31;5051677;28;20029;-48
2023/07/13 01:40:04;;;;;;;0.00;0.00;;;;;;;13.53;100.00;101301.88;5051673;28;20028;-48
2023/07/13 01:42:30;;;;;;;0.10;0.10;;;;;;;13.52;100.00;101294.03;5052045;28;20021;-48
2023/07/13 01:44:55;;;;;;;0.10;0.10;;;;;;;13.48;100.00;101298.28;5051491;28;20025;-48
2023/07/13 01:47:23;;;;;;;0.10;0.10;;;;;;;13.51;100.00;101298.34;5052230;28;20391;-47
2023/07/13 01:49:49;;;;;;;;;;;;;;;13.57;99.47;101302.78;5052510;28;20028;-49
2023/07/13 01:52:15;;;;;;;0.10;0.10;;;;;;;13.48;100.00;101306.91;5051321;28;19917;-45
2023/07/13 01:54:40;;;;;;;0.10;0.10;;;;;;;13.43;100.00;101286.94;5051768;28;20104;-48
2023/07/13 01:57:06;;;;;;;0.00;0.00;;;;;;;13.39;100.00;101292.84;5052286;28;20025;-47
2023/07/13 01:59:33;;;;;;;0.10;0.10;;;;;;;13.38;100.00;101304.94;5051970;28;20040;-48
2023/07/13 02:01:58;;;;;;;0.10;0.10;;;;;;;13.34;100.00;101301.34;5055557;28;20477;-47
2023/07/13 02:04:24;;;;;;;0.10;0.10;;;;;;;13.31;100.00;101301.28;5055263;28;20131;-49
2023/07/13 02:06:49;;;;;;;0.03;0.03;;;;;;;13.35;100.00;101302.25;5054739;28;20051;-45
2023/07/13 02:09:14;;;;;;;0.03;0.03;;;;;;;13.30;100.00;101299.53;5055428;28;20077;-48
2023/07/13 02:11:40;;;;;;;0.10;0.10;;;;;;;13.30;100.00;101301.25;5055151;28;20017;-46
2023/07/13 02:14:05;;;;;;;0.10;0.10;;;;;;;13.30;100.00;101306.44;5054648;28;20031;-45
2023/07/13 02:16:31;;;;;;;0.10;0.10;;;;;;;13.27;100.00;101311.50;5055379;28;20096;-47
2023/07/13 02:18:56;;;;;;;0.10;0.10;;;;;;;13.28;100.00;101305.50;5055401;28;20492;-48
2023/07/13 02:21:25;;;;;;;0.10;0.10;;;;;;;13.27;100.00;101303.75;5054428;28;20041;-46
2023/07/13 02:23:52;;;;;;;0.10;0.10;;;;;;;13.27;100.00;101301.16;5055266;28;20033;-46
2023/07/13 02:26:17;;;;;;;0.10;0.10;;;;;;;13.27;100.00;101303.75;5055159;28;20028;-47
2023/07/13 02:28:43;;;;;;;0.10;0.10;;;;;;;13.26;100.00;101312.34;5054566;28;20376;-48
2023/07/13 02:31:10;;;;;;;0.10;0.10;;;;;;;13.21;100.00;101309.66;5055260;28;20051;-46
2023/07/13 02:33:36;;;;;;;0.10;0.10;;;;;;;13.20;100.00;101307.03;5054696;28;20094;-48
2023/07/13 02:36:02;;;;;;;0.10;0.10;;;;;;;13.18;100.00;101300.09;5054456;28;20476;-49
2023/07/13 02:38:27;;;;;;;0.03;0.03;;;;;;;13.14;100.00;101303.44;5054647;28;20017;-48
2023/07/13 02:40:53;;;;;;;0.10;0.10;;;;;;;13.13;100.00;101304.28;5054814;28;20108;-45
2023/07/13 02:43:18;;;;;;;0.10;0.10;;;;;;;13.13;100.00;101305.97;5054306;28;20037;-46
2023/07/13 02:45:45;;;;;;;0.10;0.10;;;;;;;13.07;100.00;101306.69;5054618;28;20074;-47
2023/07/13 02:48:10;;;;;;;0.00;0.00;;;;;;;13.07;100.00;101305.81;5054389;28;20025;-46
2023/07/13 02:50:35;;;;;;;0.10;0.10;;;;;;;13.03;100.00;101310.03;5054342;28;20025;-49
2023/07/13 02:53:01;;;;;;;0.10;0.10;;;;;;;13.03;100.00;101310.03;5054605;28;20067;-47
2023/07/13 02:55:26;;;;;;;0.10;0.10;;;;;;;13.03;100.00;101310.03;5053563;28;20025;-47
2023/07/13 02:57:51;;;;;;;0.10;0.10;;;;;;;13.00;100.00;101305.66;5054743;28;20017;-48
2023/07/13 03:00:17;;;;;;;0.10;0.10;;;;;;;12.97;100.00;101307.28;5054620;28;20052;-48
2023/07/13 03:02:43;;;;;;;0.10;0.10;;;;;;;12.89;100.00;101307.06;5053532;28;20408;-45
2023/07/13 03:05:10;;;;;;;0.10;0.10;;;;;;;12.92;100.00;101316.63;5054503;28;20473;-46
2023/07/13 03:07:36;;;;;;;0.10;0.10;;;;;;;12.88;100.00;101304.44;5054129;28;20029;-48
2023/07/13 03:10:02;;;;;;;0.00;0.00;;;;;;;12.84;100.00;101314.69;5053199;28;20051;-49
2023/07/13 03:12:27;;;;;;;0.10;0.10;;;;;;;12.84;100.00;101316.41;5054205;28;20057;-47
2023/07/13 03:14:52;;;;;;;0.10;0.10;;;;;;;12.82;100.00;101305.13;5054419;28;20369;-46
2023/07/13 03:17:18;;;;;;;0.10;0.10;;;;;;;12.84;100.00;101317.28;5053507;28;20029;-47
2023/07/13 03:19:43;;;;;;;0.10;0.10;;;;;;;12.79;100.00;101315.41;5053739;28;20021;-44
2023/07/13 03:22:09;;;;;;;0.10;0.10;;;;;;;12.77;100.00;101310.19;5053828;28;20060;-45
2023/07/13 03:24:35;;;;;;;0.10;0.10;;;;;;;12.76;100.00;101310.16;5053237;28;20036;-46
2023/07/13 03:27:03;;;;;;;0.00;0.00;;;;;;;12.72;100.00;101316.94;5053893;28;20473;-47
2023/07/13 03:29:28;;;;;;;;;;;;;;;12.81;100.00;101317.19;5053728;28;20469;-48
2023/07/13 03:31:54;;;;;;;0.10;0.10;;;;;;;12.76;100.00;101321.38;5053378;28;19913;-48
2023/07/13 03:34:19;;;;;;;0.10;0.10;;;;;;;12.74;100.00;101317.84;5053983;28;20033;-43
2023/07/13 03:36:44;;;;;;;0.10;0.10;;;;;;;12.72;100.00;101324.69;5053266;28;20016;-49
2023/07/13 03:39:10;;;;;;;0.10;0.10;;;;;;;12.67;100.00;101327.16;5053175;28;20100;-49
2023/07/13 03:41:36;;;;;;;0.10;0.10;;;;;;;12.68;100.00;101323.72;5053632;28;20047;-43
2023/07/13 03:44:01;;;;;;;0.00;0.00;;;;;;;12.70;100.00;101334.13;5053517;28;20024;-43
2023/07/13 03:46:27;;;;;;;0.10;0.10;;;;;;;12.68;100.00;101325.47;5052965;28;20036;-43
2023/07/13 03:48:52;;;;;;;0.10;0.10;;;;;;;12.67;100.00;101331.47;5053627;28;20032;-44
2023/07/13 03:51:18;;;;;;;0.13;0.13;;;;;;;12.67;100.00;101326.28;5053215;28;20025;-44
2023/07/13 03:53:46;;;;;;;0.10;0.10;;;;;;;12.66;100.00;101342.63;5052741;28;20365;-44
2023/07/13 03:56:15;;;;;;;0.10;0.10;;;;;;;12.65;100.00;101334.00;5053622;28;20048;-42
2023/07/13 03:58:41;;;;;;;0.10;0.10;;;;;;;12.65;100.00;101340.88;5052580;28;20044;-42
2023/07/13 04:01:09;;;;;;;0.10;0.10;;;;;;;12.65;100.00;101339.19;5053285;28;20021;-45
2023/07/13 04:03:36;;;;;;;0.08;0.08;;;;;;;12.65;100.00;101348.63;5053072;28;20025;-48
2023/07/13 04:06:03;;;;;;;0.10;0.10;;;;;;;12.66;100.00;101345.22;5052467;28;20108;-48
2023/07/13 04:08:31;;;;;;;0.10;0.10;;;;;;;12.67;100.00;101345.25;5053214;28;20067;-47
2023/07/13 04:10:57;;;;;;;0.10;0.10;;;;;;;12.72;100.00;101355.75;5053192;28;20377;-48
2023/07/13 04:13:24;;;;;;;0.10;0.10;;;;;;;12.75;100.00;101353.22;5052343;28;20099;-43
2023/07/13 04:15:50;;;;;;;0.10;0.10;;;;;;;12.80;100.00;101359.41;5053237;28;20033;-47
2023/07/13 04:18:15;;;;;;;0.10;0.10;;;;;;;12.87;100.00;101359.59;5053053;28;20021;-42
2023/07/13 04:20:41;;;;;;;0.10;0.10;;;;;;;12.95;100.00;101365.84;5051910;28;21010;-42
2023/07/13 04:23:06;;;;;;;0.10;0.10;;;;;;;13.03;100.00;101359.19;5052176;28;20052;-45
2023/07/13 04:25:31;;;;;;;0.10;0.10;;;;;;;13.11;100.00;101364.59;5052495;28;20035;-47
2023/07/13 04:27:57;;;;;;;0.20;0.20;;;;;;;13.17;100.00;101363.03;5052504;28;20092;-46
2023/07/13 04:30:23;;;;;;;0.20;0.20;;;;;;;13.28;100.00;101363.31;5052770;28;20481;-43
2023/07/13 04:32:51;;;;;;;0.10;0.10;;;;;;;13.33;100.00;101360.84;5052755;28;20111;-46
2023/07/13 04:35:17;;;;;;;0.20;0.20;;;;;;;13.44;100.00;101369.81;5052578;28;20108;-44
2023/07/13 04:37:42;;;;;;;0.20;0.20;;;;;;;13.48;100.00;101370.78;5052749;28;20121;-43
2023/07/13 04:40:11;;;;;;;0.13;0.13;;;;;;;13.54;100.00;101367.47;5052501;28;20108;-47
2023/07/13 04:42:37;;;;;;;0.10;0.10;;;;;;;13.58;100.00;101371.88;5052004;28;20044;-43
2023/07/13 04:45:02;;;;;;;0.10;0.10;;;;;;;13.62;100.00;101379.78;5052671;28;20384;-43
2023/07/13 04:47:30;;;;;;;0.20;0.20;;;;;;;13.69;100.00;101382.53;5052135;28;20025;-47
2023/07/13 04:49:56;;;;;;;0.10;0.10;;;;;;;13.78;100.00;101383.63;5052421;28;20025;-48
2023/07/13 04:52:21;;;;;;;0.10;0.10;;;;;;;13.83;100.00;101378.56;5052693;28;20465;-45
2023/07/13 04:54:50;;;;;;;0.10;0.10;;;;;;;13.92;100.00;101381.38;5051999;28;20036;-47
2023/07/13 04:57:15;;;;;;;0.10;0.10;;;;;;;13.96;100.00;101380.59;5052791;28;20025;-48
2023/07/13 04:59:41;;;;;;;0.10;0.10;;;;;;;14.00;100.00;101378.97;5052218;28;20068;-46
2023/07/13 05:02:07;;;;;;;0.10;0.10;;;;;;;14.05;100.00;101379.09;5051698;28;20021;-48
2023/07/13 05:04:32;;;;;;;0.20;0.20;;;;;;;14.13;100.00;101383.59;5052101;28;20021;-43
2023/07/13 05:06:59;;;;;;;0.20;0.20;;;;;;;14.20;100.00;101388.94;5052596;28;20037;-44
2023/07/13 05:09:24;;;;;;;0.10;0.10;;;;;;;14.27;100.00;101396.03;5051624;28;20099;-43
2023/07/13 05:11:50;;;;;;;0.10;0.10;;;;;;;14.28;100.00;101390.88;5052544;28;20623;-44
2023/07/13 05:14:16;;;;;;;0.10;0.10;;;;;;;14.31;100.00;101397.84;5052653;28;20440;-47
2023/07/13 05:16:41;;;;;;;0.10;0.10;;;;;;;14.40;100.00;101392.00;5051322;28;20090;-47
2023/07/13 05:19:07;;;;;;;0.10;0.10;;;;;;;14.47;100.00;101399.94;5052580;28;20024;-48
2023/07/13 05:21:33;;;;;;;0.10;0.10;;;;;;;14.53;100.00;101393.16;5051958;28;20090;-44
2023/07/13 05:23:58;;;;;;;0.15;0.15;;;;;;;14.58;100.00;101404.50;5051790;28;20037;-43
2023/07/13 05:26:23;;;;;;;0.10;0.10;;;;;;;14.63;100.00;101405.47;5052187;28;20025;-46
2023/07/13 05:28:49;;;;;;;0.10;0.10;;;;;;;14.72;100.00;101408.28;5052190;28;20500;-46
2023/07/13 05:31:15;;;;;;;0.10;0.10;;;;;;;14.79;100.00;101415.34;5051693;28;20025;-43
2023/07/13 05:33:40;;;;;;;0.10;0.10;;;;;;;14.85;100.00;101413.72;5053027;28;20025;-47
2023/07/13 05:36:06;;;;;;;0.10;0.10;;;;;;;15.00;100.00;101410.59;5056070;28;20029;-48
2023/07/13 05:38:32;;;;;;;0.20;0.20;;;;;;;15.08;100.00;101414.19;5055130;28;20033;-49
2023/07/13 05:40:58;;;;;;;0.20;0.20;;;;;;;15.11;100.00;101409.94;5056034;28;20017;-46
2023/07/13 05:43:24;;;;;;;0.20;0.20;;;;;;;15.20;100.00;101418.78;5055393;28;20104;-43
2023/07/13 05:45:52;;;;;;;0.20;0.20;;;;;;;15.33;100.00;101423.38;5055176;28;20025;-45
2023/07/13 05:48:17;;;;;;;0.10;0.10;;;;;;;15.41;100.00;101419.19;5055780;28;20040;-46
2023/07/13 05:50:43;;;;;;;0.10;0.10;;;;;;;15.36;100.00;101418.22;5055280;28;20017;-42
2023/07/13 05:53:08;;;;;;;0.10;0.10;;;;;;;15.38;100.00;101420.88;5055456;28;20538;-43
2023/07/13 05:55:33;;;;;;;0.10;0.10;;;;;;;15.39;100.00;101418.28;5055555;28;20392;-43
2023/07/13 05:58:00;;;;;;;0.10;0.10;;;;;;;15.43;100.00;101422.69;5055501;28;20040;-43
2023/07/13 06:00:26;;;;;;;0.10;0.10;;;;;;;15.42;100.00;101420.94;5054623;28;20104;-44
2023/07/13 06:02:51;;;;;;;0.10;0.10;;;;;;;15.45;100.00;101436.59;5055846;28;20029;-43
2023/07/13 06:05:17;;;;;;;0.10;0.10;;;;;;;15.46;100.00;101433.13;5054970;28;20025;-43
2023/07/13 06:07:42;;;;;;;0.10;0.10;;;;;;;15.54;100.00;101438.47;5055448;28;20032;-48
2023/07/13 06:10:08;;;;;;;0.10;0.10;;;;;;;15.56;100.00;101438.53;5055592;28;20082;-46
2023/07/13 06:12:33;;;;;;;0.10;0.10;;;;;;;15.68;100.00;101443.91;5054598;28;20029;-47
2023/07/13 06:14:59;;;;;;;0.20;0.20;;;;;;;15.75;100.00;101444.91;5055491;28;20017;-43
2023/07/13 06:17:24;;;;;;;0.10;0.10;;;;;;;15.83;100.00;101448.56;5055294;28;20522;-47
2023/07/13 06:19:50;;;;;;;0.10;0.10;;;;;;;15.87;100.00;101439.06;5054439;28;20518;-47
2023/07/13 06:22:15;;;;;;;0.10;0.10;;;;;;;15.89;100.00;101445.19;5055240;28;20528;-48
2023/07/13 06:24:40;;;;;;;0.10;0.10;;;;;;;15.97;100.00;101446.19;5054419;28;20040;-48
2023/07/13 06:27:06;;;;;;;0.10;0.10;;;;;;;16.12;100.00;101456.84;5054732;28;20017;-45
2023/07/13 06:29:31;;;;;;;0.10;0.10;;;;;;;16.11;100.00;101455.09;5054716;28;20040;-47
2023/07/13 06:31:57;;;;;;;0.10;0.10;;;;;;;16.26;100.00;101453.59;5055052;28;20104;-47
2023/07/13 06:34:25;;;;;;;0.10;0.10;;;;;;;16.22;100.00;101451.81;5054112;28;20024;-45
2023/07/13 06:36:51;;;;;;;0.10;0.10;;;;;;;16.21;100.00;101461.31;5055136;28;20040;-49
2023/07/13 06:39:16;;;;;;;0.20;0.20;;;;;;;16.29;100.00;101469.25;5054724;28;20021;-44
2023/07/13 06:41:41;;;;;;;0.10;0.10;;;;;;;16.23;100.00;101463.94;5053845;28;20136;-48
2023/07/13 06:44:07;;;;;;;0.10;0.10;;;;;;;16.16;100.00;101469.91;5054569;28;20104;-46
2023/07/13 06:46:33;;;;;;;0.10;0.10;;;;;;;16.19;100.00;101462.13;5053587;28;20090;-46
2023/07/13 06:49:01;;;;;;;0.10;0.10;;;;;;;16.25;100.00;101467.44;5054130;28;20017;-44
2023/07/13 06:51:26;;;;;;;0.08;0.08;;;;;;;16.23;100.00;101463.94;5054550;28;20108;-46
2023/07/13 06:53:52;;;;;;;0.10;0.10;;;;;;;16.29;100.00;101469.25;5054461;28;20108;-43
2023/07/13 06:56:17;;;;;;;0.10;0.10;;;;;;;16.40;100.00;101467.69;5054238;28;20025;-44
2023/07/13 06:58:43;;;;;;;0.10;0.10;;;;;;;16.51;100.00;101466.97;5054014;28;20029;-45
2023/07/13 07:01:08;;;;;;;0.05;0.05;;;;;;;16.44;100.00;101472.09;5054151;28;20027;-45
2023/07/13 07:03:33;;;;;;;0.10;0.10;;;;;;;16.35;100.00;101476.28;5053853;28;20025;-43
2023/07/13 07:06:23;;;;;;;0.10;0.10;;;;;;;16.44;100.00;101484.22;5054241;28;20396;-44
2023/07/13 07:08:48;;;;;;;0.10;0.10;;;;;;;16.44;100.00;101474.69;5053710;28;20033;-42
2023/07/13 07:11:18;;;;;;;0.10;0.10;;;;;;;16.54;100.00;101483.53;5054216;28;20063;-43
2023/07/13 07:13:44;;;;;;;0.08;0.08;;;;;;;16.62;100.00;101473.22;5053915;28;20029;-44
2023/07/13 07:16:09;;;;;;;0.10;0.10;;;;;;;16.63;100.00;101480.19;5053801;28;20086;-43
2023/07/13 07:18:35;;;;;;;0.10;0.10;;;;;;;16.56;100.00;101486.13;5053790;28;20079;-42
2023/07/13 07:21:01;;;;;;;0.10;0.10;;;;;;;16.66;100.00;101482.81;5053838;28;20027;-42
2023/07/13 07:23:26;;;;;;;0.00;0.00;;;;;;;16.83;100.00;101482.19;5053132;28;20052;-43
2023/07/13 07:25:52;;;;;;;0.00;0.00;;;;;;;16.97;100.00;101483.28;5053766;28;20032;-45
2023/07/13 07:28:20;;;;;;;0.00;0.00;;;;;;;17.05;100.00;101494.66;5053751;28;20017;-43
2023/07/13 07:30:46;;;;;;;0.10;0.10;;;;;;;17.15;100.00;101489.59;5052879;28;20446;-43
2023/07/13 07:33:12;;;;;;;0.10;0.10;;;;;;;17.24;99.66;101494.91;5053961;28;20188;-44
2023/07/13 07:35:38;;;;;;;0.10;0.10;;;;;;;17.49;100.00;101495.19;5053383;28;20122;-42
2023/07/13 07:38:03;;;;;;;0.00;0.00;;;;;;;17.34;98.05;101502.00;5053167;28;20158;-44
2023/07/13 07:40:29;;;;;;;0.03;0.03;;;;;;;17.44;97.96;101496.03;5053466;28;20029;-47
2023/07/13 07:42:54;;;;;;;0.00;0.00;;;;;;;17.58;97.32;101496.19;5053445;28;20025;-44
2023/07/13 07:45:20;;;;;;;0.10;0.10;;;;;;;17.57;96.39;101496.16;5053285;28;20530;-48
2023/07/13 07:47:46;;;;;;;0.10;0.10;;;;;;;17.53;95.72;101494.38;5053458;28;20033;-45
2023/07/13 07:50:12;;;;;;;0.10;0.10;;;;;;;17.61;96.58;101491.00;5053361;28;20031;-44
2023/07/13 07:52:37;;;;;;;0.08;0.08;;;;;;;17.66;96.30;101491.03;5052851;28;20155;-49
2023/07/13 07:55:05;;;;;;;0.10;0.10;;;;;;;17.70;96.00;101492.84;5053606;28;20028;-48
2023/07/13 07:57:31;;;;;;;0.00;0.00;;;;;;;17.73;95.91;101492.00;5052999;28;20021;-46
2023/07/13 07:59:56;;;;;;;0.00;0.00;;;;;;;17.85;96.06;101499.06;5052785;28;20017;-48
2023/07/13 08:02:22;;;;;;;0.00;0.00;;;;;;;17.85;93.17;101502.53;5053305;28;20029;-46
2023/07/13 08:04:47;;;;;;;0.10;0.10;;;;;;;18.00;91.82;101496.63;5052280;28;20029;-47
2023/07/13 08:07:13;;;;;;;0.00;0.00;;;;;;;18.17;90.96;101485.47;5053295;28;20027;-48
2023/07/13 08:09:38;;;;;;;0.00;0.00;;;;;;;18.26;91.06;101498.59;5053002;28;20489;-46
2023/07/13 08:12:04;;;;;;;0.00;0.00;;;;;;;18.36;90.73;101500.41;5052669;28;20036;-45
2023/07/13 08:14:29;;;;;;;0.00;0.00;;;;;;;18.47;88.59;101504.84;5052860;28;20024;-44
2023/07/13 08:16:55;;;;;;;0.10;0.10;;;;;;;18.50;86.89;101504.84;5052797;28;20032;-44
2023/07/13 08:19:20;;;;;;;0.03;0.03;;;;;;;18.80;87.86;101516.38;5052557;28;20052;-43
2023/07/13 08:21:48;;;;;;;0.10;0.10;;;;;;;18.90;86.33;101507.75;5052599;28;20124;-44
2023/07/13 08:24:13;;;;;;;;;;;;;;;19.06;87.65;101501.75;5053021;28;20040;-46
2023/07/13 08:26:39;;;;;;;0.10;0.10;;;;;;;19.22;83.16;101504.44;5052079;28;20372;-44
2023/07/13 08:29:05;;;;;;;0.00;0.00;;;;;;;19.28;82.65;101501.84;5053080;28;20298;-44
2023/07/13 08:31:30;;;;;;;0.00;0.00;;;;;;;19.36;81.34;101504.50;5052469;28;20033;-47
2023/07/13 08:33:56;;;;;;;0.00;0.00;;;;;;;19.17;80.90;101500.94;5052432;28;20025;-46
2023/07/13 08:36:21;;;;;;;0.00;0.00;;;;;;;19.25;82.76;101504.47;5052880;28;20369;-45
2023/07/13 08:38:47;;;;;;;0.00;0.00;;;;;;;19.31;80.33;101507.06;5052274;28;20029;-45
2023/07/13 08:41:16;;;;;;;0.00;0.00;;;;;;;19.25;77.23;101512.31;5052475;28;20507;-44
2023/07/13 08:43:46;;;;;;;0.10;0.10;;;;;;;19.34;78.04;101507.09;5052643;28;20100;-44
2023/07/13 08:46:28;;;;;;;0.00;0.00;;;;;;;19.85;78.30;101498.56;5052548;28;20057;-43
2023/07/13 08:48:58;;;;;;;0.00;0.00;;;;;;;19.93;75.93;101502.03;5052264;28;20059;-46
2023/07/13 08:51:27;;;;;;;0.00;0.00;;;;;;;19.71;73.95;101501.97;5052492;28;20036;-47
2023/07/13 08:53:59;;;;;;;0.00;0.00;;;;;;;19.76;74.71;101504.59;5052598;28;20041;-45
2023/07/13 08:56:27;;;;;;;0.00;0.00;;;;;;;19.60;75.50;101498.47;5052282;28;20528;-48
2023/07/13 08:58:57;;;;;;;0.00;0.00;;;;;;;19.34;75.44;101501.88;5052603;28;20029;-48
2023/07/13 09:01:31;;;;;;;0.00;0.00;;;;;;;19.39;77.41;101499.25;5051555;28;20037;-43
2023/07/13 09:04:08;;;;;;;0.00;0.00;;;;;;;19.47;77.95;101497.56;5052632;28;20032;-47
2023/07/13 09:06:49;;;;;;;0.00;0.00;;;;;;;19.73;78.07;101495.00;5052032;28;20059;-47
2023/07/13 09:09:44;;;;;;;0.00;0.00;;;;;;;19.78;77.51;101497.66;5054168;28;20033;-49
2023/07/13 09:12:25;;;;;;;0.00;0.00;;;;;;;20.04;77.48;101500.31;5056663;28;20029;-43
2023/07/13 09:14:54;;;;;;;0.00;0.00;;;;;;;19.97;73.53;101495.94;5056329;28;20374;-46
2023/07/13 09:17:32;;;;;;;0.00;0.00;;;;;;;19.78;73.47;101501.97;5056070;28;20017;-43
2023/07/13 09:20:19;;;;;;;0.00;0.00;;;;;;;19.57;74.38;101499.34;5056520;28;20025;-47
2023/07/13 09:22:46;;;;;;;0.00;0.00;;;;;;;19.96;74.29;101501.16;5055290;28;20047;-43
2023/07/13 09:25:30;;;;;;;0.00;0.00;;;;;;;20.25;71.09;101488.09;5056504;28;20140;-48
2023/07/13 09:28:00;;;;;;;0.00;0.00;;;;;;;20.13;70.76;101490.72;5056003;28;20033;-48
2023/07/13 09:30:44;;;;;;;0.00;0.00;;;;;;;20.42;72.84;101495.09;5055378;28;20068;-45
2023/07/13 09:33:09;;;;;;;0.00;0.00;;;;;;;20.51;70.15;101495.94;5056152;28;20028;-47
2023/07/13 09:35:35;;;;;;;0.00;0.00;;;;;;;20.60;68.16;101496.81;5055322;28;20025;-47
2023/07/13 09:38:14;;;;;;;0.00;0.00;;;;;;;20.62;68.68;101493.31;5055812;28;20074;-48
2023/07/13 09:41:17;;;;;;;0.00;0.00;;;;;;;20.90;69.89;101490.63;5055775;28;20035;-49
2023/07/13 09:44:06;;;;;;;0.00;0.00;;;;;;;20.68;68.40;101498.53;5055239;28;20060;-48
2023/07/13 09:46:31;;;;;;;0.10;0.10;;;;;;;20.83;68.52;101491.53;5055860;28;20027;-48
2023/07/13 09:48:57;;;;;;;0.00;0.00;;;;;;;21.12;68.92;101495.81;5055778;28;20108;-46
2023/07/13 09:51:22;;;;;;;0.00;0.00;;;;;;;21.11;66.08;101501.91;5055211;28;20027;-44
2023/07/13 09:53:49;;;;;;;0.00;0.00;;;;;;;21.22;67.80;101497.50;5055902;28;20033;-46
2023/07/13 09:56:31;;;;;;;0.00;0.00;;;;;;;21.52;64.32;101495.63;5055862;28;20017;-47
2023/07/13 09:58:58;;;;;;;0.00;0.00;;;;;;;21.36;64.83;101493.06;5055552;28;20445;-49
2023/07/13 10:01:37;;;;;;;0.00;0.00;;;;;;;21.54;65.82;101496.50;5055685;28;20044;-45
2023/07/13 10:04:13;;;;;;;0.00;0.00;;;;;;;21.85;64.42;101496.31;5055430;28;20020;-46
2023/07/13 10:06:43;;;;;;;0.00;0.00;;;;;;;22.26;62.56;101497.75;5055251;28;20058;-50
2023/07/13 10:09:10;;;;;;;0.00;0.00;;;;;;;22.17;61.41;101493.44;5055557;28;20445;-46
2023/07/13 10:11:37;;;;;;;0.00;0.00;;;;;;;22.03;62.87;101511.94;5054847;28;20028;-48
2023/07/13 10:14:23;;;;;;;0.00;0.00;;;;;;;22.07;61.75;101509.31;5055511;28;20062;-44
2023/07/13 10:16:53;;;;;;;0.00;0.00;;;;;;;22.51;60.60;101515.94;5055403;28;20074;-49
2023/07/13 10:19:26;;;;;;;0.00;0.00;;;;;;;22.03;58.97;101511.06;5054704;28;20029;-47
2023/07/13 10:22:00;;;;;;;0.00;0.00;;;;;;;21.97;59.02;101506.72;5054241;28;20075;-47
2023/07/13 10:24:30;;;;;;;0.00;0.00;;;;;;;22.51;57.55;101502.81;5054836;28;20029;-49
2023/07/13 10:27:05;;;;;;;0.00;0.00;;;;;;;22.90;56.13;101510.31;5054616;28;20029;-43
2023/07/13 10:29:36;;;;;;;0.00;0.00;;;;;;;23.12;55.04;101510.91;5055136;28;20051;-45
2023/07/13 10:32:09;;;;;;;0.00;0.00;;;;;;;22.89;54.89;101503.28;5055174;28;20111;-43
2023/07/13 10:34:35;;;;;;;0.00;0.00;;;;;;;22.87;54.28;101508.56;5054339;28;20021;-47
2023/07/13 10:37:01;;;;;;;0.00;0.00;;;;;;;22.44;56.35;101511.63;5054858;28;20031;-45
2023/07/13 10:39:28;;;;;;;0.00;0.00;;;;;;;22.07;58.05;101510.16;5053823;28;20021;-43
2023/07/13 10:42:00;;;;;;;0.00;0.00;;;;;;;21.48;60.00;101517.50;5054904;28;20051;-46
2023/07/13 10:44:29;;;;;;;0.00;0.00;;;;;;;20.74;66.87;101513.41;5054391;28;20029;-44
2023/07/13 10:46:58;;;;;;;0.00;0.00;;;;;;;20.25;73.55;101518.66;5054359;28;20082;-45
2023/07/13 10:49:26;;;;;;;0.00;0.00;;;;;;;19.89;75.14;101522.09;5054456;28;20025;-43
2023/07/13 10:51:52;;;;;;;0.00;0.00;;;;;;;19.54;75.27;101535.06;5054536;28;20096;-47
2023/07/13 10:54:32;;;;;;;0.00;0.00;;;;;;;19.35;78.45;101540.22;5054059;28;20021;-43
2023/07/13 10:57:07;;;;;;;0.00;0.00;;;;;;;19.26;78.90;101537.53;5054909;28;20029;-46
2023/07/13 10:59:32;;;;;;;0.00;0.00;;;;;;;19.20;79.27;101534.94;5053998;28;20427;-45
2023/07/13 11:02:11;;;;;;;0.00;0.00;;;;;;;19.97;77.28;101535.19;5054146;28;20473;-43
2023/07/13 11:04:46;;;;;;;0.00;0.00;;;;;;;20.92;72.08;101533.44;5053710;28;20037;-45
2023/07/13 11:07:24;;;;;;;0.00;0.00;;;;;;;21.96;69.92;101543.47;5054308;28;20024;-43
2023/07/13 11:10:04;;;;;;;0.00;0.00;;;;;;;23.38;66.96;101550.06;5054036;28;20159;-44
2023/07/13 11:12:47;;;;;;;0.00;0.00;;;;;;;24.67;59.43;101550.81;5053734;28;20551;-45
2023/07/13 11:15:13;;;;;;;0.00;0.00;;;;;;;24.69;53.31;101543.72;5053634;28;20039;-46
2023/07/13 11:17:59;;;;;;;0.00;0.00;;;;;;;25.11;54.80;101542.06;5053887;28;20021;-46
2023/07/13 11:20:34;;;;;;;0.00;0.00;;;;;;;25.37;51.28;101542.44;5053742;28;20029;-43
2023/07/13 11:23:11;;;;;;;0.00;0.00;;;;;;;24.41;52.67;101545.06;5053223;28;20485;-43
2023/07/13 11:25:38;;;;;;;0.00;0.00;;;;;;;23.28;57.56;101544.06;5053845;28;20036;-47